sensor_id;sensor_type;location;lat;lon;timestamp;pressure;altitude;pressure_sealevel;temperature;humidity
75717;BME280;64333;50.138;14.332;2023-01-16T00:01:26;97087.44;;;2.70;79.02
75717;BME280;64333;50.138;14.332;2023-01-16T00:03:52;97089.19;;;2.68;79.14
75717;BME280;64333;50.138;14.332;2023-01-16T00:06:18;97079.06;;;2.67;79.01
75717;BME280;64333;50.138;14.332;2023-01-16T00:08:43;97079.13;;;2.65;79.53
75717;BME280;64333;50.138;14.332;2023-01-16T00:11:10;97080.00;;;2.64;79.32
75717;BME280;64333;50.138;14.332;2023-01-16T00:13:35;97066.69;;;2.56;79.74
75717;BME280;64333;50.138;14.332;2023-01-16T00:16:00;97068.34;;;2.57;80.15
75717;BME280;64333;50.138;14.332;2023-01-16T00:18:26;97075.25;;;2.54;79.84
75717;BME280;64333;50.138;14.332;2023-01-16T00:20:51;97052.53;;;2.46;80.32
75717;BME280;64333;50.138;14.332;2023-01-16T00:23:17;97069.44;;;2.49;80.46
75717;BME280;64333;50.138;14.332;2023-01-16T00:25:43;97064.31;;;2.50;80.47
75717;BME280;64333;50.138;14.332;2023-01-16T00:28:10;97060.13;;;2.49;80.57
75717;BME280;64333;50.138;14.332;2023-01-16T00:30:35;97065.25;;;2.48;80.20
75717;BME280;64333;50.138;14.332;2023-01-16T00:33:01;97062.97;;;2.39;80.94
75717;BME280;64333;50.138;14.332;2023-01-16T00:35:27;97055.28;;;2.40;80.92
75717;BME280;64333;50.138;14.332;2023-01-16T00:37:53;97041.31;;;2.26;81.16
75717;BME280;64333;50.138;14.332;2023-01-16T00:40:19;97050.50;;;2.31;81.46
75717;BME280;64333;50.138;14.332;2023-01-16T00:42:44;97053.78;;;2.35;81.26
75717;BME280;64333;50.138;14.332;2023-01-16T00:45:10;97052.84;;;2.37;81.19
75717;BME280;64333;50.138;14.332;2023-01-16T00:47:35;97051.31;;;2.32;81.51
75717;BME280;64333;50.138;14.332;2023-01-16T00:50:00;97054.75;;;2.31;81.57
75717;BME280;64333;50.138;14.332;2023-01-16T00:52:26;97059.06;;;2.29;81.62
75717;BME280;64333;50.138;14.332;2023-01-16T00:54:51;97049.72;;;2.29;81.63
75717;BME280;64333;50.138;14.332;2023-01-16T00:57:16;97042.84;;;2.31;81.49
75717;BME280;64333;50.138;14.332;2023-01-16T00:59:42;97042.72;;;2.34;81.38
75717;BME280;64333;50.138;14.332;2023-01-16T01:02:07;97047.03;;;2.34;81.56
75717;BME280;64333;50.138;14.332;2023-01-16T01:04:32;97043.81;;;2.27;81.71
75717;BME280;64333;50.138;14.332;2023-01-16T01:06:58;97039.75;;;2.22;82.14
75717;BME280;64333;50.138;14.332;2023-01-16T01:09:23;97042.53;;;2.14;82.40
75717;BME280;64333;50.138;14.332;2023-01-16T01:11:48;97037.53;;;2.11;82.64
75717;BME280;64333;50.138;14.332;2023-01-16T01:14:14;97047.88;;;2.07;82.88
75717;BME280;64333;50.138;14.332;2023-01-16T01:16:39;97059.13;;;2.00;83.52
75717;BME280;64333;50.138;14.332;2023-01-16T01:19:05;97053.53;;;1.87;83.60
75717;BME280;64333;50.138;14.332;2023-01-16T01:21:31;97036.78;;;1.80;84.15
75717;BME280;64333;50.138;14.332;2023-01-16T01:23:56;97061.13;;;1.89;84.01
75717;BME280;64333;50.138;14.332;2023-01-16T01:26:22;97055.59;;;1.76;84.25
75717;BME280;64333;50.138;14.332;2023-01-16T01:28:47;97057.41;;;1.71;84.96
75717;BME280;64333;50.138;14.332;2023-01-16T01:31:13;97046.63;;;1.63;85.28
75717;BME280;64333;50.138;14.332;2023-01-16T01:33:38;97052.50;;;1.65;85.57
75717;BME280;64333;50.138;14.332;2023-01-16T01:36:04;97048.91;;;1.72;85.13
75717;BME280;64333;50.138;14.332;2023-01-16T01:38:30;97052.22;;;1.74;85.37
75717;BME280;64333;50.138;14.332;2023-01-16T01:40:56;97037.06;;;1.71;85.42
75717;BME280;64333;50.138;14.332;2023-01-16T01:43:21;97046.44;;;1.69;85.08
75717;BME280;64333;50.138;14.332;2023-01-16T01:45:52;97034.28;;;1.79;84.45
75717;BME280;64333;50.138;14.332;2023-01-16T01:51:07;97033.84;;;1.94;83.31
75717;BME280;64333;50.138;14.332;2023-01-16T01:53:41;97024.47;;;1.94;83.05
75717;BME280;64333;50.138;14.332;2023-01-16T01:58:41;97039.03;;;1.89;82.62
75717;BME280;64333;50.138;14.332;2023-01-16T02:01:07;97035.09;;;1.81;82.99
75717;BME280;64333;50.138;14.332;2023-01-16T02:03:36;97032.53;;;1.81;83.17
75717;BME280;64333;50.138;14.332;2023-01-16T02:06:05;97041.09;;;1.78;83.06
75717;BME280;64333;50.138;14.332;2023-01-16T02:08:33;97031.88;;;1.74;83.73
75717;BME280;64333;50.138;14.332;2023-01-16T02:11:07;97030.16;;;1.75;83.38
75717;BME280;64333;50.138;14.332;2023-01-16T02:13:35;97023.25;;;1.80;82.95
75717;BME280;64333;50.138;14.332;2023-01-16T02:16:01;97026.53;;;1.83;82.63
75717;BME280;64333;50.138;14.332;2023-01-16T02:18:45;97013.69;;;1.86;82.21
75717;BME280;64333;50.138;14.332;2023-01-16T02:27:22;96989.31;;;1.79;83.73
75717;BME280;64333;50.138;14.332;2023-01-16T02:35:09;96976.00;;;1.71;84.09
75717;BME280;64333;50.138;14.332;2023-01-16T02:38:01;96979.31;;;1.73;83.85
75717;BME280;64333;50.138;14.332;2023-01-16T02:51:42;96953.09;;;1.71;83.04
75717;BME280;64333;50.138;14.332;2023-01-16T02:53:50;96950.72;;;1.65;82.67
75717;BME280;64333;50.138;14.332;2023-01-16T02:56:26;96939.03;;;1.60;83.33
75717;BME280;64333;50.138;14.332;2023-01-16T02:58:55;96933.25;;;1.55;83.57
75717;BME280;64333;50.138;14.332;2023-01-16T03:01:21;96941.66;;;1.57;83.36
75717;BME280;64333;50.138;14.332;2023-01-16T03:14:28;96916.28;;;1.81;81.29
75717;BME280;64333;50.138;14.332;2023-01-16T03:22:33;96909.22;;;1.89;80.37
75717;BME280;64333;50.138;14.332;2023-01-16T03:27:55;96913.28;;;1.96;79.79
75717;BME280;64333;50.138;14.332;2023-01-16T03:33:54;96900.19;;;2.07;79.22
75717;BME280;64333;50.138;14.332;2023-01-16T03:39:07;96892.84;;;1.98;80.17
75717;BME280;64333;50.138;14.332;2023-01-16T03:41:35;96889.50;;;1.96;80.76
75717;BME280;64333;50.138;14.332;2023-01-16T03:44:07;96893.97;;;1.89;81.11
75717;BME280;64333;50.138;14.332;2023-01-16T03:46:42;96876.25;;;1.86;80.79
75717;BME280;64333;50.138;14.332;2023-01-16T03:49:11;96868.63;;;1.86;80.51
75717;BME280;64333;50.138;14.332;2023-01-16T03:52:04;96871.16;;;1.86;80.78
75717;BME280;64333;50.138;14.332;2023-01-16T03:57:07;96868.63;;;1.86;80.22
75717;BME280;64333;50.138;14.332;2023-01-16T03:59:35;96858.31;;;1.89;79.66
75717;BME280;64333;50.138;14.332;2023-01-16T04:02:06;96844.75;;;1.90;79.30
75717;BME280;64333;50.138;14.332;2023-01-16T04:04:42;96844.31;;;2.02;78.83
75717;BME280;64333;50.138;14.332;2023-01-16T04:07:24;96841.75;;;2.02;78.80
75717;BME280;64333;50.138;14.332;2023-01-16T04:09:57;96843.34;;;2.06;78.47
75717;BME280;64333;50.138;14.332;2023-01-16T04:12:27;96843.28;;;2.08;78.31
75717;BME280;64333;50.138;14.332;2023-01-16T04:14:58;96837.47;;;2.04;78.34
75717;BME280;64333;50.138;14.332;2023-01-16T04:17:25;96843.91;;;2.14;77.73
75717;BME280;64333;50.138;14.332;2023-01-16T04:19:51;96838.59;;;2.20;77.25
75717;BME280;64333;50.138;14.332;2023-01-16T04:22:25;96822.44;;;2.21;77.43
75717;BME280;64333;50.138;14.332;2023-01-16T04:24:51;96826.63;;;2.22;76.99
75717;BME280;64333;50.138;14.332;2023-01-16T04:27:19;96820.69;;;2.23;76.92
75717;BME280;64333;50.138;14.332;2023-01-16T04:29:44;96818.03;;;2.26;76.06
75717;BME280;64333;50.138;14.332;2023-01-16T04:32:10;96816.03;;;2.34;75.95
75717;BME280;64333;50.138;14.332;2023-01-16T04:34:35;96799.97;;;2.32;75.71
75717;BME280;64333;50.138;14.332;2023-01-16T04:37:00;96793.91;;;2.36;75.28
75717;BME280;64333;50.138;14.332;2023-01-16T04:39:26;96793.91;;;2.36;75.84
75717;BME280;64333;50.138;14.332;2023-01-16T04:41:51;96794.66;;;2.38;75.74
75717;BME280;64333;50.138;14.332;2023-01-16T04:44:17;96789.44;;;2.41;75.73
75717;BME280;64333;50.138;14.332;2023-01-16T04:46:43;96780.38;;;2.34;75.23
75717;BME280;64333;50.138;14.332;2023-01-16T04:49:08;96781.81;;;2.41;75.72
75717;BME280;64333;50.138;14.332;2023-01-16T04:51:36;96794.63;;;2.40;75.64
75717;BME280;64333;50.138;14.332;2023-01-16T04:54:05;96766.03;;;2.32;75.42
75717;BME280;64333;50.138;14.332;2023-01-16T04:56:31;96773.53;;;2.36;75.82
75717;BME280;64333;50.138;14.332;2023-01-16T04:58:57;96784.75;;;2.31;75.96
75717;BME280;64333;50.138;14.332;2023-01-16T05:01:22;96775.56;;;2.27;75.99
75717;BME280;64333;50.138;14.332;2023-01-16T05:03:48;96774.84;;;2.23;76.33
75717;BME280;64333;50.138;14.332;2023-01-16T05:06:13;96770.63;;;2.22;76.52
75717;BME280;64333;50.138;14.332;2023-01-16T05:08:38;96766.41;;;2.21;76.41
75717;BME280;64333;50.138;14.332;2023-01-16T05:11:04;96761.31;;;2.21;76.47
75717;BME280;64333;50.138;14.332;2023-01-16T05:13:29;96749.38;;;2.23;76.28
75717;BME280;64333;50.138;14.332;2023-01-16T05:15:55;96741.63;;;2.26;76.06
75717;BME280;64333;50.138;14.332;2023-01-16T05:18:22;96742.28;;;2.31;76.03
75717;BME280;64333;50.138;14.332;2023-01-16T05:20:47;96741.28;;;2.35;75.43
75717;BME280;64333;50.138;14.332;2023-01-16T05:23:13;96736.13;;;2.37;74.91
75717;BME280;64333;50.138;14.332;2023-01-16T05:25:38;96745.16;;;2.45;74.46
75717;BME280;64333;50.138;14.332;2023-01-16T05:28:04;96735.50;;;2.53;74.03
75717;BME280;64333;50.138;14.332;2023-01-16T05:30:29;96746.38;;;2.58;73.60
75717;BME280;64333;50.138;14.332;2023-01-16T05:32:55;96735.09;;;2.64;73.15
75717;BME280;64333;50.138;14.332;2023-01-16T05:35:20;96732.38;;;2.68;73.21
75717;BME280;64333;50.138;14.332;2023-01-16T05:37:46;96732.28;;;2.71;72.69
75717;BME280;64333;50.138;14.332;2023-01-16T05:40:12;96740.75;;;2.72;72.64
75717;BME280;64333;50.138;14.332;2023-01-16T05:42:38;96718.69;;;2.71;72.56
75717;BME280;64333;50.138;14.332;2023-01-16T05:45:04;96729.69;;;2.73;72.40
75717;BME280;64333;50.138;14.332;2023-01-16T05:47:29;96715.25;;;2.72;72.25
75717;BME280;64333;50.138;14.332;2023-01-16T05:49:55;96715.97;;;2.75;72.17
75717;BME280;64333;50.138;14.332;2023-01-16T05:52:24;96702.47;;;2.73;71.78
75717;BME280;64333;50.138;14.332;2023-01-16T05:54:50;96701.47;;;2.77;71.91
75717;BME280;64333;50.138;14.332;2023-01-16T05:57:16;96705.44;;;2.84;71.66
75717;BME280;64333;50.138;14.332;2023-01-16T05:59:42;96691.78;;;2.85;71.77
75717;BME280;64333;50.138;14.332;2023-01-16T06:02:11;96690.25;;;2.81;71.73
75717;BME280;64333;50.138;14.332;2023-01-16T06:04:36;96695.34;;;2.81;71.51
75717;BME280;64333;50.138;14.332;2023-01-16T06:07:02;96676.69;;;2.81;71.94
75717;BME280;64333;50.138;14.332;2023-01-16T06:09:27;96661.63;;;2.75;71.79
75717;BME280;64333;50.138;14.332;2023-01-16T06:11:52;96660.69;;;2.77;71.92
75717;BME280;64333;50.138;14.332;2023-01-16T06:14:18;96656.59;;;2.73;72.34
75717;BME280;64333;50.138;14.332;2023-01-16T06:16:43;96648.34;;;2.67;72.32
75717;BME280;64333;50.138;14.332;2023-01-16T06:19:08;96654.50;;;2.61;72.50
75717;BME280;64333;50.138;14.332;2023-01-16T06:21:34;96632.31;;;2.43;73.04
75717;BME280;64333;50.138;14.332;2023-01-16T06:23:59;96636.31;;;2.49;72.96
75717;BME280;64333;50.138;14.332;2023-01-16T06:26:24;96630.88;;;2.36;73.26
75717;BME280;64333;50.138;14.332;2023-01-16T06:28:50;96623.34;;;2.33;73.31
75717;BME280;64333;50.138;14.332;2023-01-16T06:31:15;96617.59;;;2.28;73.38
75717;BME280;64333;50.138;14.332;2023-01-16T06:33:40;96609.63;;;2.14;73.47
75717;BME280;64333;50.138;14.332;2023-01-16T06:36:06;96618.44;;;2.06;74.74
75717;BME280;64333;50.138;14.332;2023-01-16T06:38:31;96614.59;;;1.96;74.80
75717;BME280;64333;50.138;14.332;2023-01-16T06:40:56;96606.34;;;1.89;75.07
75717;BME280;64333;50.138;14.332;2023-01-16T06:43:23;96614.44;;;1.77;75.73
75717;BME280;64333;50.138;14.332;2023-01-16T06:45:48;96606.53;;;1.62;76.26
75717;BME280;64333;50.138;14.332;2023-01-16T06:48:14;96582.59;;;1.44;77.31
75717;BME280;64333;50.138;14.332;2023-01-16T06:50:39;96597.22;;;1.38;78.46
75717;BME280;64333;50.138;14.332;2023-01-16T06:53:05;96584.81;;;1.29;78.93
75717;BME280;64333;50.138;14.332;2023-01-16T06:55:30;96579.09;;;1.22;78.46
75717;BME280;64333;50.138;14.332;2023-01-16T06:57:56;96570.72;;;1.20;78.50
75717;BME280;64333;50.138;14.332;2023-01-16T07:00:21;96569.66;;;1.26;78.03
75717;BME280;64333;50.138;14.332;2023-01-16T07:02:54;96569.56;;;1.29;77.79
75717;BME280;64333;50.138;14.332;2023-01-16T07:05:21;96562.84;;;1.28;78.16
75717;BME280;64333;50.138;14.332;2023-01-16T07:07:47;96561.00;;;1.31;78.01
75717;BME280;64333;50.138;14.332;2023-01-16T07:10:13;96561.78;;;1.33;78.07
75717;BME280;64333;50.138;14.332;2023-01-16T07:12:39;96567.75;;;1.32;78.00
75717;BME280;64333;50.138;14.332;2023-01-16T07:15:05;96546.72;;;1.27;78.27
75717;BME280;64333;50.138;14.332;2023-01-16T07:17:49;96542.53;;;1.26;77.68
75717;BME280;64333;50.138;14.332;2023-01-16T07:20:33;96543.88;;;1.36;77.86
75717;BME280;64333;50.138;14.332;2023-01-16T07:23:19;96547.16;;;1.40;77.56
75717;BME280;64333;50.138;14.332;2023-01-16T07:25:46;96550.25;;;1.48;76.88
75717;BME280;64333;50.138;14.332;2023-01-16T07:28:12;96535.69;;;1.51;76.33
75717;BME280;64333;50.138;14.332;2023-01-16T07:30:38;96551.88;;;1.72;75.82
75717;BME280;64333;50.138;14.332;2023-01-16T07:33:03;96550.03;;;1.98;74.63
75717;BME280;64333;50.138;14.332;2023-01-16T07:35:28;96543.06;;;2.45;72.86
75717;BME280;64333;50.138;14.332;2023-01-16T07:37:54;96550.69;;;2.86;71.18
75717;BME280;64333;50.138;14.332;2023-01-16T07:40:22;96552.25;;;3.67;68.25
75717;BME280;64333;50.138;14.332;2023-01-16T07:42:51;96541.53;;;5.18;62.95
75717;BME280;64333;50.138;14.332;2023-01-16T07:45:17;96536.97;;;6.50;57.70
75717;BME280;64333;50.138;14.332;2023-01-16T07:47:43;96541.88;;;7.55;53.95
75717;BME280;64333;50.138;14.332;2023-01-16T07:50:09;96526.63;;;8.49;50.87
75717;BME280;64333;50.138;14.332;2023-01-16T07:52:35;96535.53;;;9.09;48.30
75717;BME280;64333;50.138;14.332;2023-01-16T07:55:00;96525.63;;;9.78;47.18
75717;BME280;64333;50.138;14.332;2023-01-16T07:57:25;96521.38;;;9.89;45.74
75717;BME280;64333;50.138;14.332;2023-01-16T07:59:51;96505.47;;;10.44;45.04
75717;BME280;64333;50.138;14.332;2023-01-16T08:02:16;96510.44;;;10.81;43.70
75717;BME280;64333;50.138;14.332;2023-01-16T08:04:42;96498.41;;;10.22;44.69
75717;BME280;64333;50.138;14.332;2023-01-16T08:07:07;96497.97;;;10.28;45.13
75717;BME280;64333;50.138;14.332;2023-01-16T08:09:33;96494.63;;;10.39;44.16
75717;BME280;64333;50.138;14.332;2023-01-16T08:11:58;96478.97;;;10.53;44.10
75717;BME280;64333;50.138;14.332;2023-01-16T08:14:24;96480.75;;;10.29;45.46
75717;BME280;64333;50.138;14.332;2023-01-16T08:16:49;96473.78;;;10.65;44.31
75717;BME280;64333;50.138;14.332;2023-01-16T08:19:15;96467.41;;;10.35;44.12
75717;BME280;64333;50.138;14.332;2023-01-16T08:21:40;96467.97;;;10.85;43.04
75717;BME280;64333;50.138;14.332;2023-01-16T08:24:06;96455.25;;;10.82;43.31
75717;BME280;64333;50.138;14.332;2023-01-16T08:26:31;96456.50;;;10.66;44.19
75717;BME280;64333;50.138;14.332;2023-01-16T08:28:57;96452.97;;;10.90;42.91
75717;BME280;64333;50.138;14.332;2023-01-16T08:31:23;96441.81;;;11.11;42.29
75717;BME280;64333;50.138;14.332;2023-01-16T08:33:49;96430.53;;;10.90;43.14
75717;BME280;64333;50.138;14.332;2023-01-16T08:36:15;96425.97;;;10.60;43.32
75717;BME280;64333;50.138;14.332;2023-01-16T08:38:45;96407.94;;;10.71;42.50
75717;BME280;64333;50.138;14.332;2023-01-16T08:41:11;96412.72;;;11.20;41.84
75717;BME280;64333;50.138;14.332;2023-01-16T08:43:55;96418.38;;;11.69;41.37
75717;BME280;64333;50.138;14.332;2023-01-16T08:46:40;96389.25;;;11.67;40.19
75717;BME280;64333;50.138;14.332;2023-01-16T08:49:24;96385.47;;;11.27;42.15
75717;BME280;64333;50.138;14.332;2023-01-16T08:52:09;96390.41;;;11.30;42.00
75717;BME280;64333;50.138;14.332;2023-01-16T08:54:34;96368.53;;;11.12;41.87
75717;BME280;64333;50.138;14.332;2023-01-16T08:56:59;96370.44;;;11.21;42.61
75717;BME280;64333;50.138;14.332;2023-01-16T08:59:25;96372.09;;;11.22;41.85
75717;BME280;64333;50.138;14.332;2023-01-16T09:01:50;96364.09;;;11.58;40.76
75717;BME280;64333;50.138;14.332;2023-01-16T09:04:15;96361.59;;;12.10;40.81
75717;BME280;64333;50.138;14.332;2023-01-16T09:06:41;96366.84;;;12.51;39.41
75717;BME280;64333;50.138;14.332;2023-01-16T09:09:07;96359.56;;;13.07;38.61
75717;BME280;64333;50.138;14.332;2023-01-16T09:11:34;96353.84;;;12.62;38.56
75717;BME280;64333;50.138;14.332;2023-01-16T09:14:18;96346.25;;;12.91;38.69
75717;BME280;64333;50.138;14.332;2023-01-16T09:16:43;96343.28;;;12.95;38.04
75717;BME280;64333;50.138;14.332;2023-01-16T09:19:09;96357.47;;;13.21;37.03
75717;BME280;64333;50.138;14.332;2023-01-16T09:21:35;96330.41;;;12.43;38.81
75717;BME280;64333;50.138;14.332;2023-01-16T09:24:00;96320.44;;;13.10;37.39
75717;BME280;64333;50.138;14.332;2023-01-16T09:26:25;96331.50;;;13.61;36.63
75717;BME280;64333;50.138;14.332;2023-01-16T09:28:51;96317.59;;;13.52;37.41
75717;BME280;64333;50.138;14.332;2023-01-16T09:31:16;96321.63;;;14.04;36.06
75717;BME280;64333;50.138;14.332;2023-01-16T09:33:44;96320.22;;;13.90;35.72
75717;BME280;64333;50.138;14.332;2023-01-16T09:36:09;96316.78;;;13.12;37.32
75717;BME280;64333;50.138;14.332;2023-01-16T09:38:35;96317.41;;;13.44;37.25
75717;BME280;64333;50.138;14.332;2023-01-16T09:41:01;96315.03;;;13.81;36.38
75717;BME280;64333;50.138;14.332;2023-01-16T09:43:42;96301.63;;;13.57;36.96
75717;BME280;64333;50.138;14.332;2023-01-16T09:49:10;96294.41;;;14.65;35.99
75717;BME280;64333;50.138;14.332;2023-01-16T09:51:43;96276.84;;;15.49;33.46
75717;BME280;64333;50.138;14.332;2023-01-16T09:54:33;96262.56;;;14.99;33.85
75717;BME280;64333;50.138;14.332;2023-01-16T09:57:20;96276.94;;;14.38;33.90
75717;BME280;64333;50.138;14.332;2023-01-16T10:00:05;96258.22;;;13.68;35.93
75717;BME280;64333;50.138;14.332;2023-01-16T10:02:33;96264.50;;;13.94;35.97
75717;BME280;64333;50.138;14.332;2023-01-16T10:05:00;96251.31;;;13.29;36.38
75717;BME280;64333;50.138;14.332;2023-01-16T10:12:38;96228.03;;;13.48;36.72
75717;BME280;64333;50.138;14.332;2023-01-16T10:15:20;96228.44;;;14.01;35.44
75717;BME280;64333;50.138;14.332;2023-01-16T10:20:44;96208.09;;;14.71;34.58
75717;BME280;64333;50.138;14.332;2023-01-16T10:23:22;96213.22;;;14.90;33.85
75717;BME280;64333;50.138;14.332;2023-01-16T10:32:04;96200.84;;;14.28;33.69
75717;BME280;64333;50.138;14.332;2023-01-16T10:34:38;96195.00;;;14.63;33.81
75717;BME280;64333;50.138;14.332;2023-01-16T10:37:06;96186.34;;;14.72;33.57
75717;BME280;64333;50.138;14.332;2023-01-16T10:39:35;96173.28;;;15.35;33.11
75717;BME280;64333;50.138;14.332;2023-01-16T10:42:15;96175.75;;;15.37;32.94
75717;BME280;64333;50.138;14.332;2023-01-16T10:47:48;96155.97;;;14.45;33.64
75717;BME280;64333;50.138;14.332;2023-01-16T10:50:33;96160.72;;;13.85;35.24
75717;BME280;64333;50.138;14.332;2023-01-16T10:53:00;96145.16;;;13.37;35.24
75717;BME280;64333;50.138;14.332;2023-01-16T10:55:25;96132.88;;;12.71;36.92
75717;BME280;64333;50.138;14.332;2023-01-16T10:57:55;96130.06;;;12.44;37.65
75717;BME280;64333;50.138;14.332;2023-01-16T11:00:29;96143.38;;;12.60;36.85
75717;BME280;64333;50.138;14.332;2023-01-16T11:03:18;96124.75;;;12.76;37.26
75717;BME280;64333;50.138;14.332;2023-01-16T11:05:44;96143.22;;;13.01;36.89
75717;BME280;64333;50.138;14.332;2023-01-16T11:08:15;96128.59;;;12.91;36.67
75717;BME280;64333;50.138;14.332;2023-01-16T11:10:44;96118.28;;;12.61;37.73
75717;BME280;64333;50.138;14.332;2023-01-16T11:13:27;96108.94;;;12.88;37.35
75717;BME280;64333;50.138;14.332;2023-01-16T11:18:58;96085.94;;;13.33;35.72
75717;BME280;64333;50.138;14.332;2023-01-16T11:21:28;96083.19;;;13.53;35.23
75717;BME280;64333;50.138;14.332;2023-01-16T11:24:13;96069.41;;;13.43;35.25
75717;BME280;64333;50.138;14.332;2023-01-16T11:26:41;96068.72;;;12.94;35.10
75717;BME280;64333;50.138;14.332;2023-01-16T11:29:15;96056.59;;;12.26;36.65
75717;BME280;64333;50.138;14.332;2023-01-16T11:31:47;96047.38;;;12.03;37.02
75717;BME280;64333;50.138;14.332;2023-01-16T11:34:14;96041.97;;;12.65;37.02
75717;BME280;64333;50.138;14.332;2023-01-16T11:36:40;96030.53;;;12.67;37.24
75717;BME280;64333;50.138;14.332;2023-01-16T11:39:18;96017.28;;;12.70;36.60
75717;BME280;64333;50.138;14.332;2023-01-16T11:41:50;96015.28;;;13.02;35.76
75717;BME280;64333;50.138;14.332;2023-01-16T11:44:19;96013.34;;;12.66;35.16
75717;BME280;64333;50.138;14.332;2023-01-16T11:47:04;96008.53;;;12.33;36.48
75717;BME280;64333;50.138;14.332;2023-01-16T11:49:39;96009.69;;;12.97;35.58
75717;BME280;64333;50.138;14.332;2023-01-16T11:52:05;95983.56;;;13.46;35.56
75717;BME280;64333;50.138;14.332;2023-01-16T11:54:33;95966.94;;;13.76;34.22
75717;BME280;64333;50.138;14.332;2023-01-16T12:02:54;95949.97;;;13.54;34.24
75717;BME280;64333;50.138;14.332;2023-01-16T12:05:44;95939.25;;;13.30;33.72
75717;BME280;64333;50.138;14.332;2023-01-16T12:11:13;95911.03;;;13.18;33.78
75717;BME280;64333;50.138;14.332;2023-01-16T12:22:30;95874.59;;;12.26;35.04
